Greenfield, Minnesota
Current Conditions -  °F | °C
As of 12:35 AM on Wednesday 28 Jan 2015 (Local Time) from KCFE Reporting Station
Overcast Overcast  
Wind Chill: 24°   Ceiling: 1100
Heat Index: 32°   Visibility: 7mi
Dew Point: 28°   Wind: 8mph
Humidity: 87%   Direction: 130°SE
Pressure: 30.08"   Gusts: NA
Location:  45.1192°N, 93.7982°W
Report Text: KCFE 280635Z AUTO 13007KT 7SM OVC011 00/M02 A3008 RMK AO2 T10021022
Loading
Personal Weather Stations






























Interactive Weather Map New forecast layout! Learn more

10-Day Weather Forecast

Advertisements
Track Severe Weather on mobile